createdAt,value
2023-03-12T00:00:33.280Z,100.00
2023-03-12T00:01:37.411Z,100.00
2023-03-12T00:02:41.687Z,100.00
2023-03-12T00:03:45.828Z,100.00
2023-03-12T00:04:49.876Z,100.00
2023-03-12T00:05:54.076Z,100.00
2023-03-12T00:06:58.176Z,100.00
2023-03-12T00:08:02.356Z,100.00
2023-03-12T00:09:06.525Z,100.00
2023-03-12T00:10:10.720Z,100.00
2023-03-12T00:11:15.016Z,100.00
2023-03-12T00:12:19.115Z,100.00
2023-03-12T00:13:23.259Z,100.00
2023-03-12T00:14:27.406Z,100.00
2023-03-12T00:15:31.492Z,100.00
2023-03-12T00:16:35.717Z,100.00
2023-03-12T00:17:39.852Z,100.00
2023-03-12T00:18:44.022Z,100.00
2023-03-12T00:19:54.110Z,100.00
2023-03-12T00:20:56.722Z,100.00
2023-03-12T00:22:00.969Z,100.00
2023-03-12T00:23:05.029Z,100.00
2023-03-12T00:24:23.272Z,100.00
2023-03-12T00:25:26.175Z,100.00
2023-03-12T00:26:30.272Z,100.00
2023-03-12T00:27:34.477Z,100.00
2023-03-12T00:28:38.593Z,100.00
2023-03-12T00:29:42.726Z,100.00
2023-03-12T00:30:46.981Z,100.00
2023-03-12T00:31:51.219Z,100.00
2023-03-12T00:32:55.448Z,100.00
2023-03-12T00:33:59.495Z,100.00
2023-03-12T00:35:03.656Z,100.00
2023-03-12T00:36:07.749Z,100.00
2023-03-12T00:37:11.997Z,100.00
2023-03-12T00:38:16.024Z,100.00
2023-03-12T00:39:20.210Z,100.00
2023-03-12T00:40:27.362Z,100.00
2023-03-12T00:41:30.527Z,100.00
2023-03-12T00:42:34.762Z,100.00
2023-03-12T00:43:38.936Z,100.00
2023-03-12T00:44:42.926Z,100.00
2023-03-12T00:45:47.179Z,100.00
2023-03-12T00:46:51.295Z,100.00
2023-03-12T00:47:55.479Z,100.00
2023-03-12T00:48:59.620Z,100.00
2023-03-12T00:50:03.718Z,100.00
2023-03-12T00:51:07.999Z,100.00
2023-03-12T00:52:12.250Z,100.00
2023-03-12T00:53:16.318Z,100.00
2023-03-12T00:54:20.609Z,100.00
2023-03-12T00:55:24.707Z,100.00
2023-03-12T00:56:28.907Z,100.00
2023-03-12T00:57:32.956Z,100.00
2023-03-12T00:58:37.154Z,100.00
2023-03-12T00:59:41.362Z,100.00
2023-03-12T01:00:45.420Z,100.00
2023-03-12T01:01:49.669Z,100.00
2023-03-12T01:02:53.702Z,100.00
2023-03-12T01:03:57.928Z,100.00
2023-03-12T01:05:02.166Z,100.00
2023-03-12T01:06:06.186Z,100.00
2023-03-12T01:07:10.385Z,100.00
2023-03-12T01:08:14.434Z,100.00
2023-03-12T01:09:18.671Z,100.00
2023-03-12T01:10:22.815Z,100.00
2023-03-12T01:11:27.046Z,100.00
2023-03-12T01:12:31.260Z,100.00
2023-03-12T01:13:35.487Z,100.00
2023-03-12T01:14:39.623Z,100.00
2023-03-12T01:15:43.812Z,100.00
2023-03-12T01:16:47.983Z,100.00
2023-03-12T01:17:51.936Z,100.00
2023-03-12T01:18:56.041Z,100.00
2023-03-12T01:20:00.283Z,100.00
2023-03-12T01:21:04.406Z,100.00
2023-03-12T01:22:22.691Z,100.00
2023-03-12T01:23:25.407Z,100.00
2023-03-12T01:24:29.409Z,100.00
2023-03-12T01:25:34.577Z,100.00
2023-03-12T01:26:38.193Z,100.00
2023-03-12T01:27:42.399Z,100.00
2023-03-12T01:28:46.503Z,100.00
2023-03-12T01:29:50.630Z,100.00
2023-03-12T01:30:54.886Z,100.00
2023-03-12T01:31:59.023Z,100.00
2023-03-12T01:33:03.164Z,100.00
2023-03-12T01:34:07.223Z,100.00
2023-03-12T01:35:12.380Z,100.00
2023-03-12T01:36:22.246Z,100.00
2023-03-12T01:37:24.765Z,100.00
2023-03-12T01:38:28.889Z,100.00
2023-03-12T01:39:32.937Z,100.00
2023-03-12T01:40:37.118Z,100.00
2023-03-12T01:41:41.203Z,100.00
2023-03-12T01:42:45.283Z,100.00
2023-03-12T01:43:49.367Z,100.00
2023-03-12T01:44:53.577Z,100.00
2023-03-12T01:45:57.807Z,100.00
2023-03-12T01:47:01.898Z,100.00
2023-03-12T01:48:05.925Z,100.00
2023-03-12T01:49:10.202Z,100.00
2023-03-12T01:50:14.372Z,100.00
2023-03-12T01:51:18.496Z,100.00
2023-03-12T01:52:22.776Z,100.00
2023-03-12T01:53:26.842Z,100.00
2023-03-12T01:54:31.103Z,100.00
2023-03-12T01:55:35.130Z,100.00
2023-03-12T01:56:39.292Z,100.00
2023-03-12T01:57:43.375Z,100.00
2023-03-12T01:58:47.562Z,100.00
2023-03-12T01:59:51.701Z,100.00
2023-03-12T02:00:56.006Z,100.00
2023-03-12T02:02:14.040Z,100.00
2023-03-12T02:03:31.044Z,100.00
2023-03-12T02:04:33.873Z,100.00
2023-03-12T02:05:37.974Z,100.00
2023-03-12T02:06:42.074Z,100.00
2023-03-12T02:07:46.124Z,100.00
2023-03-12T02:08:50.202Z,100.00
2023-03-12T02:09:54.368Z,100.00
2023-03-12T02:10:58.441Z,100.00
2023-03-12T02:12:16.680Z,100.00
2023-03-12T02:13:19.612Z,100.00
2023-03-12T02:14:23.558Z,100.00
2023-03-12T02:15:27.762Z,100.00
2023-03-12T02:16:32.033Z,100.00
2023-03-12T02:17:36.073Z,100.00
2023-03-12T02:18:40.207Z,100.00
2023-03-12T02:19:44.224Z,100.00
2023-03-12T02:20:48.445Z,100.00
2023-03-12T02:21:52.502Z,100.00
2023-03-12T02:22:56.671Z,100.00
2023-03-12T02:24:00.742Z,100.00
2023-03-12T02:25:04.842Z,100.00
2023-03-12T02:26:09.143Z,100.00
2023-03-12T02:27:13.101Z,100.00
2023-03-12T02:28:17.421Z,100.00
2023-03-12T02:29:21.531Z,100.00
2023-03-12T02:30:25.665Z,100.00
2023-03-12T02:31:29.848Z,100.00
2023-03-12T02:32:34.034Z,100.00
2023-03-12T02:33:38.024Z,100.00
2023-03-12T02:34:42.132Z,100.00
2023-03-12T02:35:46.342Z,100.00
2023-03-12T02:36:50.532Z,100.00
2023-03-12T02:37:54.739Z,100.00
2023-03-12T02:38:58.956Z,100.00
2023-03-12T02:40:03.060Z,100.00
2023-03-12T02:41:07.238Z,100.00
2023-03-12T02:42:11.357Z,100.00
2023-03-12T02:43:15.566Z,100.00
2023-03-12T02:44:19.745Z,100.00
2023-03-12T02:45:23.851Z,100.00
2023-03-12T02:46:27.969Z,100.00
2023-03-12T02:47:33.047Z,100.00
2023-03-12T02:48:36.334Z,100.00
2023-03-12T02:49:40.464Z,100.00
2023-03-12T02:50:44.503Z,100.00
2023-03-12T02:51:48.758Z,100.00
2023-03-12T02:52:52.931Z,100.00
2023-03-12T02:53:57.069Z,100.00
2023-03-12T02:55:01.220Z,100.00
2023-03-12T02:56:05.308Z,100.00
2023-03-12T02:57:09.481Z,100.00
2023-03-12T02:58:13.615Z,100.00
2023-03-12T02:59:17.861Z,100.00
2023-03-12T03:00:22.893Z,100.00
2023-03-12T03:01:26.820Z,100.00
2023-03-12T03:02:30.788Z,100.00
2023-03-12T03:03:34.855Z,100.00
2023-03-12T03:04:38.951Z,100.00
2023-03-12T03:05:43.195Z,100.00
2023-03-12T03:06:47.354Z,100.00
2023-03-12T03:07:51.549Z,100.00
2023-03-12T03:08:55.632Z,100.00
2023-03-12T03:09:59.774Z,100.00
2023-03-12T03:11:04.008Z,100.00
2023-03-12T03:12:08.136Z,100.00
2023-03-12T03:13:12.251Z,100.00
2023-03-12T03:14:16.290Z,100.00
2023-03-12T03:15:20.512Z,100.00
2023-03-12T03:16:24.545Z,100.00
2023-03-12T03:17:28.707Z,100.00
2023-03-12T03:18:32.903Z,100.00
2023-03-12T03:19:37.011Z,100.00
2023-03-12T03:20:41.031Z,100.00
2023-03-12T03:21:46.161Z,100.00
2023-03-12T03:22:49.792Z,100.00
2023-03-12T03:23:54.049Z,100.00
2023-03-12T03:24:58.176Z,100.00
2023-03-12T03:26:02.456Z,100.00
2023-03-12T03:27:06.419Z,100.00
2023-03-12T03:28:10.518Z,100.00
2023-03-12T03:29:14.755Z,100.00
2023-03-12T03:30:18.916Z,100.00
2023-03-12T03:31:23.088Z,100.00
2023-03-12T03:32:27.180Z,100.00
2023-03-12T03:33:31.211Z,100.00
2023-03-12T03:34:35.412Z,100.00
2023-03-12T03:35:39.603Z,100.00
2023-03-12T03:36:43.716Z,100.00
2023-03-12T03:37:47.942Z,100.00
2023-03-12T03:38:52.040Z,100.00
2023-03-12T03:39:57.081Z,100.00
2023-03-12T03:41:00.806Z,100.00
2023-03-12T03:42:05.114Z,100.00
2023-03-12T03:43:09.231Z,100.00
2023-03-12T03:44:13.359Z,100.00
2023-03-12T03:45:17.483Z,100.00
2023-03-12T03:46:21.735Z,100.00
2023-03-12T03:47:25.815Z,100.00
2023-03-12T03:48:29.844Z,100.00
2023-03-12T03:49:33.923Z,100.00
2023-03-12T03:50:38.113Z,100.00
2023-03-12T03:51:42.278Z,100.00
2023-03-12T03:52:46.337Z,100.00
2023-03-12T03:53:50.634Z,100.00
2023-03-12T03:54:54.729Z,100.00
2023-03-12T03:55:58.896Z,100.00
2023-03-12T03:57:03.197Z,100.00
2023-03-12T03:58:07.168Z,100.00
2023-03-12T03:59:11.349Z,100.00
2023-03-12T04:00:15.476Z,100.00
2023-03-12T04:01:19.652Z,100.00
2023-03-12T04:02:23.791Z,100.00
2023-03-12T04:03:28.132Z,100.00
2023-03-12T04:04:32.253Z,100.00
2023-03-12T04:05:36.406Z,100.00
2023-03-12T04:06:46.546Z,100.00
2023-03-12T04:07:49.146Z,100.00
2023-03-12T04:08:53.384Z,100.00
2023-03-12T04:09:57.329Z,100.00
2023-03-12T04:11:01.525Z,100.00
2023-03-12T04:12:05.598Z,100.00
2023-03-12T04:13:09.785Z,100.00
2023-03-12T04:14:13.919Z,100.00
2023-03-12T04:15:17.998Z,100.00
2023-03-12T04:16:22.187Z,100.00
2023-03-12T04:17:26.467Z,100.00
2023-03-12T04:18:30.604Z,100.00
2023-03-12T04:19:34.578Z,100.00
2023-03-12T04:20:38.792Z,100.00
2023-03-12T04:21:42.902Z,100.00
2023-03-12T04:22:47.059Z,100.00
2023-03-12T04:23:51.241Z,100.00
2023-03-12T04:24:55.355Z,100.00
2023-03-12T04:25:59.605Z,100.00
2023-03-12T04:27:03.734Z,100.00
2023-03-12T04:28:07.896Z,100.00
2023-03-12T04:29:11.947Z,100.00
2023-03-12T04:30:16.064Z,100.00
2023-03-12T04:31:20.269Z,100.00
2023-03-12T04:32:24.443Z,100.00
2023-03-12T04:33:28.545Z,100.00
2023-03-12T04:34:32.742Z,100.00
2023-03-12T04:35:36.944Z,100.00
2023-03-12T04:36:40.983Z,100.00
2023-03-12T04:37:45.170Z,100.00
2023-03-12T04:38:49.342Z,100.00
2023-03-12T04:39:53.537Z,100.00
2023-03-12T04:40:57.715Z,100.00
2023-03-12T04:42:01.876Z,100.00
2023-03-12T04:43:06.028Z,100.00
2023-03-12T04:44:13.081Z,100.00
2023-03-12T04:45:16.352Z,100.00
2023-03-12T04:46:20.581Z,100.00
2023-03-12T04:47:24.484Z,100.00
2023-03-12T04:48:28.570Z,100.00
2023-03-12T04:49:32.774Z,100.00
2023-03-12T04:50:36.802Z,100.00
2023-03-12T04:51:41.047Z,100.00
2023-03-12T04:52:45.200Z,100.00
2023-03-12T04:53:49.296Z,100.00
2023-03-12T04:54:53.426Z,100.00
2023-03-12T04:55:57.589Z,100.00
2023-03-12T04:57:01.878Z,100.00
2023-03-12T04:58:05.988Z,100.00
2023-03-12T04:59:10.192Z,100.00
2023-03-12T05:00:14.399Z,100.00
2023-03-12T05:01:18.465Z,100.00
2023-03-12T05:02:22.654Z,100.00
2023-03-12T05:03:27.938Z,100.00
2023-03-12T05:04:33.618Z,100.00
2023-03-12T05:05:35.707Z,100.00
2023-03-12T05:06:39.898Z,100.00
2023-03-12T05:07:46.978Z,100.00
2023-03-12T05:08:50.168Z,100.00
2023-03-12T05:09:54.473Z,100.00
2023-03-12T05:10:58.576Z,100.00
2023-03-12T05:12:02.754Z,100.00
2023-03-12T05:13:06.906Z,100.00
2023-03-12T05:14:10.902Z,100.00
2023-03-12T05:15:15.122Z,100.00
2023-03-12T05:16:19.413Z,100.00
2023-03-12T05:17:23.444Z,100.00
2023-03-12T05:18:27.641Z,100.00
2023-03-12T05:19:31.751Z,100.00
2023-03-12T05:20:35.928Z,100.00
2023-03-12T05:21:39.965Z,100.00
2023-03-12T05:22:45.093Z,100.00
2023-03-12T05:23:48.907Z,100.00
2023-03-12T05:24:52.936Z,100.00
2023-03-12T05:25:56.999Z,100.00
2023-03-12T05:27:01.192Z,100.00
2023-03-12T05:28:05.314Z,100.00
2023-03-12T05:29:09.477Z,100.00
2023-03-12T05:30:13.659Z,100.00
2023-03-12T05:31:17.803Z,100.00
2023-03-12T05:32:21.916Z,100.00
2023-03-12T05:33:26.101Z,100.00
2023-03-12T05:34:30.221Z,100.00
2023-03-12T05:35:34.293Z,100.00
2023-03-12T05:36:38.482Z,100.00
2023-03-12T05:37:42.634Z,100.00
2023-03-12T05:38:46.664Z,100.00
2023-03-12T05:39:50.785Z,100.00
2023-03-12T05:40:54.863Z,100.00
2023-03-12T05:41:59.119Z,100.00
2023-03-12T05:43:03.316Z,100.00
2023-03-12T05:44:07.327Z,100.00
2023-03-12T05:45:11.625Z,100.00
2023-03-12T05:46:15.834Z,100.00
2023-03-12T05:47:19.806Z,100.00
2023-03-12T05:48:24.000Z,100.00
2023-03-12T05:49:28.169Z,100.00
2023-03-12T05:50:32.314Z,100.00
2023-03-12T05:51:36.437Z,100.00
2023-03-12T05:52:40.455Z,100.00
2023-03-12T05:53:44.529Z,100.00
2023-03-12T05:54:48.626Z,100.00
2023-03-12T05:55:52.904Z,100.00
2023-03-12T05:56:56.969Z,100.00
2023-03-12T05:58:01.002Z,100.00
2023-03-12T05:59:05.221Z,100.00
2023-03-12T06:00:09.343Z,100.00
2023-03-12T06:01:13.445Z,100.00
2023-03-12T06:02:17.731Z,100.00
2023-03-12T06:03:21.770Z,100.00
2023-03-12T06:04:25.793Z,100.00
2023-03-12T06:05:30.125Z,100.00
2023-03-12T06:06:34.094Z,100.00
2023-03-12T06:07:38.349Z,100.00
2023-03-12T06:08:42.506Z,100.00
2023-03-12T06:09:46.564Z,100.00
2023-03-12T06:10:50.880Z,100.00
2023-03-12T06:11:55.067Z,100.00
2023-03-12T06:12:59.203Z,100.00
2023-03-12T06:14:03.360Z,100.00
2023-03-12T06:15:07.575Z,100.00
2023-03-12T06:16:11.760Z,100.00
2023-03-12T06:17:15.828Z,100.00
2023-03-12T06:18:20.012Z,100.00
2023-03-12T06:19:24.044Z,100.00
2023-03-12T06:20:28.253Z,100.00
2023-03-12T06:21:32.423Z,100.00
2023-03-12T06:22:36.578Z,100.00
2023-03-12T06:23:40.700Z,100.00
2023-03-12T06:24:44.735Z,100.00
2023-03-12T06:25:48.971Z,100.00
2023-03-12T06:26:53.046Z,100.00
2023-03-12T06:27:57.310Z,100.00
2023-03-12T06:29:01.537Z,100.00
2023-03-12T06:30:05.644Z,100.00
2023-03-12T06:31:09.923Z,100.00
2023-03-12T06:32:14.901Z,100.00
2023-03-12T06:33:18.652Z,100.00
2023-03-12T06:34:22.665Z,100.00
2023-03-12T06:35:26.848Z,100.00
2023-03-12T06:36:30.957Z,100.00
2023-03-12T06:37:35.037Z,100.00
2023-03-12T06:38:39.399Z,100.00
2023-03-12T06:39:43.427Z,100.00
2023-03-12T06:40:47.549Z,100.00
2023-03-12T06:41:51.742Z,100.00
2023-03-12T06:42:55.834Z,100.00
2023-03-12T06:43:59.916Z,100.00
2023-03-12T06:45:04.071Z,100.00
2023-03-12T06:46:08.286Z,100.00
2023-03-12T06:47:12.246Z,100.00
2023-03-12T06:48:17.438Z,100.00
2023-03-12T06:49:21.223Z,100.00
2023-03-12T06:50:39.267Z,100.00
2023-03-12T06:51:42.087Z,100.00
2023-03-12T06:52:46.240Z,100.00
2023-03-12T06:53:50.463Z,100.00
2023-03-12T06:54:54.394Z,100.00
2023-03-12T06:55:58.518Z,100.00
2023-03-12T06:57:02.615Z,100.00
2023-03-12T06:58:06.838Z,100.00
2023-03-12T06:59:11.005Z,100.00
2023-03-12T07:00:15.210Z,100.00
2023-03-12T07:01:19.311Z,100.00
2023-03-12T07:02:23.639Z,100.00
2023-03-12T07:03:27.589Z,100.00
2023-03-12T07:04:31.858Z,100.00
2023-03-12T07:05:36.024Z,100.00
2023-03-12T07:06:40.195Z,100.00
2023-03-12T07:07:58.459Z,100.00
2023-03-12T07:09:01.382Z,100.00
2023-03-12T07:10:05.485Z,100.00
2023-03-12T07:11:09.621Z,100.00
2023-03-12T07:12:13.765Z,100.00
2023-03-12T07:13:17.933Z,100.00
2023-03-12T07:14:22.077Z,100.00
2023-03-12T07:15:29.230Z,100.00
2023-03-12T07:16:32.519Z,100.00
2023-03-12T07:17:36.549Z,100.00
2023-03-12T07:18:40.770Z,100.00
2023-03-12T07:19:45.055Z,100.00
2023-03-12T07:20:50.108Z,100.00
2023-03-12T07:21:53.066Z,100.00
2023-03-12T07:22:57.281Z,100.00
2023-03-12T07:24:01.371Z,100.00
2023-03-12T07:25:05.583Z,100.00
2023-03-12T07:26:15.772Z,100.00
2023-03-12T07:27:18.395Z,100.00
2023-03-12T07:28:22.459Z,100.00
2023-03-12T07:29:26.658Z,100.00
2023-03-12T07:30:30.905Z,100.00
2023-03-12T07:31:35.038Z,100.00
2023-03-12T07:32:53.177Z,100.00
2023-03-12T07:33:56.148Z,100.00
2023-03-12T07:35:00.152Z,100.00
2023-03-12T07:36:04.321Z,100.00
2023-03-12T07:37:08.405Z,100.00
2023-03-12T07:38:12.645Z,100.00
2023-03-12T07:39:16.737Z,100.00
2023-03-12T07:40:34.998Z,100.00
2023-03-12T07:41:37.870Z,100.00
2023-03-12T07:42:42.014Z,100.00
2023-03-12T07:43:46.223Z,100.00
2023-03-12T07:44:50.614Z,100.00
2023-03-12T07:45:54.454Z,100.00
2023-03-12T07:47:04.801Z,100.00
2023-03-12T07:48:02.811Z,100.00
2023-03-12T07:49:06.914Z,100.00
2023-03-12T07:50:11.153Z,100.00
2023-03-12T07:51:15.225Z,100.00
2023-03-12T07:52:19.482Z,100.00
2023-03-12T07:53:23.576Z,100.00
2023-03-12T07:54:27.858Z,100.00
2023-03-12T07:55:32.015Z,100.00
2023-03-12T07:56:36.392Z,100.00
2023-03-12T07:57:40.464Z,100.00
2023-03-12T07:58:44.697Z,100.00
2023-03-12T07:59:48.716Z,100.00
2023-03-12T08:00:52.807Z,100.00
2023-03-12T08:01:57.063Z,100.00
2023-03-12T08:03:01.370Z,100.00
2023-03-12T08:04:05.499Z,100.00
2023-03-12T08:05:09.594Z,100.00
2023-03-12T08:06:13.715Z,100.00
2023-03-12T08:07:23.857Z,100.00
2023-03-12T08:08:26.607Z,100.00
2023-03-12T08:09:30.721Z,100.00
2023-03-12T08:10:34.948Z,100.00
2023-03-12T08:11:53.407Z,100.00
2023-03-12T08:12:57.031Z,100.00
2023-03-12T08:14:00.655Z,100.00
2023-03-12T08:15:04.795Z,100.00
2023-03-12T08:16:09.614Z,100.00
2023-03-12T08:17:13.102Z,100.00
2023-03-12T08:18:17.273Z,100.00
2023-03-12T08:19:24.592Z,100.00
2023-03-12T08:20:27.773Z,100.00
2023-03-12T08:21:46.563Z,100.00
2023-03-12T08:22:49.025Z,100.00
2023-03-12T08:23:56.147Z,100.00
2023-03-12T08:24:59.449Z,100.00
2023-03-12T08:26:03.636Z,100.00
2023-03-12T08:27:07.754Z,100.00
2023-03-12T08:28:11.962Z,100.00
2023-03-12T08:29:16.120Z,100.00
2023-03-12T08:30:20.338Z,100.00
2023-03-12T08:31:24.620Z,100.00
2023-03-12T08:32:28.769Z,100.00
2023-03-12T08:33:32.684Z,100.00
2023-03-12T08:34:36.943Z,100.00
2023-03-12T08:35:41.160Z,100.00
2023-03-12T08:36:45.281Z,100.00
2023-03-12T08:37:49.474Z,100.00
2023-03-12T08:38:53.605Z,99.95
2023-03-12T08:39:57.777Z,99.85
2023-03-12T08:41:01.974Z,99.84
2023-03-12T08:42:06.076Z,99.81
2023-03-12T08:43:10.330Z,99.77
2023-03-12T08:44:14.447Z,99.71
2023-03-12T08:45:32.737Z,99.65
2023-03-12T08:46:35.781Z,99.62
2023-03-12T08:47:39.881Z,99.59
2023-03-12T08:48:44.112Z,99.54
2023-03-12T08:49:48.264Z,99.51
2023-03-12T08:50:52.524Z,99.45
2023-03-12T08:51:56.659Z,99.40
2023-03-12T08:53:00.937Z,99.32
2023-03-12T08:54:05.074Z,99.17
2023-03-12T08:55:09.274Z,99.08
2023-03-12T08:56:13.553Z,99.00
2023-03-12T08:57:17.636Z,98.90
2023-03-12T08:58:21.829Z,98.80
2023-03-12T08:59:26.141Z,98.75
2023-03-12T09:00:30.306Z,98.72
2023-03-12T09:01:34.485Z,98.66
2023-03-12T09:02:38.678Z,98.61
2023-03-12T09:03:42.764Z,98.58
2023-03-12T09:04:47.014Z,98.50
2023-03-12T09:05:51.125Z,98.43
2023-03-12T09:06:55.340Z,98.40
2023-03-12T09:07:59.604Z,98.33
2023-03-12T09:09:03.645Z,98.28
2023-03-12T09:10:07.906Z,98.25
2023-03-12T09:11:13.004Z,98.21
2023-03-12T09:12:16.775Z,98.12
2023-03-12T09:13:20.976Z,98.06
2023-03-12T09:15:29.375Z,97.90
2023-03-12T09:16:33.593Z,97.74
2023-03-12T09:17:37.784Z,97.69
2023-03-12T09:18:41.972Z,97.63
2023-03-12T09:19:46.222Z,97.58
2023-03-12T09:20:50.305Z,97.55
2023-03-12T09:21:54.514Z,97.54
2023-03-12T09:22:58.734Z,97.53
2023-03-12T09:24:02.888Z,97.56
2023-03-12T09:25:07.108Z,97.58
2023-03-12T09:26:11.239Z,97.61
2023-03-12T09:27:15.467Z,97.63
2023-03-12T09:28:19.647Z,97.58
2023-03-12T09:29:23.844Z,97.56
2023-03-12T09:30:28.260Z,97.53
2023-03-12T09:31:32.137Z,97.50
2023-03-12T09:32:36.509Z,97.42
2023-03-12T09:33:43.600Z,97.34
2023-03-12T09:34:46.943Z,97.28
2023-03-12T09:35:51.100Z,97.25
2023-03-12T09:36:55.269Z,97.25
2023-03-12T09:37:59.467Z,97.17
2023-03-12T09:39:03.548Z,97.17
2023-03-12T09:40:07.841Z,97.07
2023-03-12T09:41:12.015Z,96.99
2023-03-12T09:42:16.172Z,96.86
2023-03-12T09:43:20.359Z,96.75
2023-03-12T09:44:24.521Z,96.64
2023-03-12T09:45:28.824Z,96.57
2023-03-12T09:46:33.032Z,96.47
2023-03-12T09:47:37.254Z,96.44
2023-03-12T09:48:41.381Z,96.34
2023-03-12T09:49:45.603Z,96.27
2023-03-12T09:50:49.748Z,96.20
2023-03-12T09:51:53.952Z,96.15
2023-03-12T09:52:59.154Z,96.04
2023-03-12T09:54:02.946Z,95.81
2023-03-12T09:55:07.139Z,95.70
2023-03-12T09:56:11.325Z,95.67
2023-03-12T09:57:15.570Z,95.64
2023-03-12T09:58:19.720Z,95.69
2023-03-12T09:59:23.936Z,95.62
2023-03-12T10:00:28.073Z,95.61
2023-03-12T10:01:32.285Z,95.62
2023-03-12T10:02:36.614Z,95.61
2023-03-12T10:03:40.922Z,95.61
2023-03-12T10:04:58.603Z,95.55
2023-03-12T10:05:49.161Z,95.51
2023-03-12T10:06:53.323Z,95.40
2023-03-12T10:07:57.515Z,95.30
2023-03-12T10:09:01.751Z,95.13
2023-03-12T10:10:06.005Z,94.86
2023-03-12T10:11:10.215Z,94.52
2023-03-12T10:12:14.346Z,94.42
2023-03-12T10:13:18.573Z,94.40
2023-03-12T10:14:24.141Z,94.38
2023-03-12T10:15:26.915Z,94.32
2023-03-12T10:16:31.455Z,94.22
2023-03-12T10:17:35.918Z,94.23
2023-03-12T10:18:40.017Z,94.20
2023-03-12T10:19:44.105Z,94.13
2023-03-12T10:20:48.333Z,94.10
2023-03-12T10:21:52.520Z,94.07
2023-03-12T10:22:56.734Z,94.02
2023-03-12T10:24:00.951Z,94.04
2023-03-12T10:25:05.083Z,94.03
2023-03-12T10:26:09.302Z,93.74
2023-03-12T10:27:13.525Z,93.67
2023-03-12T10:28:17.685Z,93.57
2023-03-12T10:29:21.920Z,93.59
2023-03-12T10:30:26.108Z,93.65
2023-03-12T10:31:30.353Z,93.67
2023-03-12T10:32:35.494Z,93.51
2023-03-12T10:33:45.327Z,93.45
2023-03-12T10:34:48.079Z,93.34
2023-03-12T10:35:52.368Z,93.27
2023-03-12T10:36:56.468Z,93.03
2023-03-12T10:38:00.699Z,92.96
2023-03-12T10:39:04.860Z,92.82
2023-03-12T10:40:09.049Z,92.42
2023-03-12T10:41:13.265Z,91.87
2023-03-12T10:42:17.582Z,91.53
2023-03-12T10:43:21.727Z,91.49
2023-03-12T10:44:26.022Z,91.48
2023-03-12T10:45:30.250Z,91.41
2023-03-12T10:46:34.761Z,91.31
2023-03-12T10:47:38.645Z,91.20
2023-03-12T10:48:42.808Z,90.55
2023-03-12T10:49:47.014Z,89.93
2023-03-12T10:50:51.232Z,89.44
2023-03-12T10:51:55.458Z,89.02
2023-03-12T10:52:59.735Z,88.54
2023-03-12T10:54:18.034Z,88.25
2023-03-12T10:55:20.818Z,88.21
2023-03-12T10:56:24.976Z,88.09
2023-03-12T10:57:29.210Z,88.29
2023-03-12T10:58:33.414Z,88.19
2023-03-12T10:59:37.670Z,87.55
2023-03-12T11:00:41.836Z,87.13
2023-03-12T11:01:46.131Z,87.08
2023-03-12T11:02:51.173Z,87.06
2023-03-12T11:03:54.899Z,86.91
2023-03-12T11:05:02.171Z,86.85
2023-03-12T11:06:05.505Z,86.63
2023-03-12T11:07:09.653Z,86.50
2023-03-12T11:08:13.821Z,86.25
2023-03-12T11:09:17.948Z,86.44
2023-03-12T11:10:22.361Z,86.65
2023-03-12T11:11:26.421Z,86.77
2023-03-12T11:12:30.665Z,86.95
2023-03-12T11:13:34.914Z,86.82
2023-03-12T11:14:39.038Z,86.63
2023-03-12T11:15:57.471Z,86.67
2023-03-12T11:17:00.349Z,86.87
2023-03-12T11:18:04.569Z,86.65
2023-03-12T11:19:08.622Z,86.64
2023-03-12T11:20:12.767Z,86.73
2023-03-12T11:21:17.051Z,86.44
2023-03-12T11:22:21.233Z,85.83
2023-03-12T11:23:25.440Z,85.42
2023-03-12T11:24:29.670Z,84.94
2023-03-12T11:25:33.874Z,84.14
2023-03-12T11:26:38.179Z,84.00
2023-03-12T11:27:42.324Z,83.42
2023-03-12T11:28:46.560Z,83.43
2023-03-12T11:29:50.785Z,83.29
2023-03-12T11:30:54.931Z,82.74
2023-03-12T11:31:59.175Z,82.15
2023-03-12T11:33:03.295Z,81.70
2023-03-12T11:34:07.502Z,81.60
2023-03-12T11:35:11.741Z,81.82
2023-03-12T11:36:15.899Z,82.15
2023-03-12T11:37:20.045Z,82.42
2023-03-12T11:38:24.211Z,82.81
2023-03-12T11:39:28.504Z,83.23
2023-03-12T11:40:32.682Z,83.40
2023-03-12T11:41:36.939Z,83.14
2023-03-12T11:42:41.039Z,82.55
2023-03-12T11:43:45.317Z,82.64
2023-03-12T11:44:49.550Z,82.55
2023-03-12T11:45:53.813Z,82.67
2023-03-12T11:46:58.057Z,82.38
2023-03-12T11:48:02.235Z,82.35
2023-03-12T11:49:06.467Z,82.20
2023-03-12T11:50:10.566Z,82.11
2023-03-12T11:51:17.933Z,82.01
2023-03-12T11:52:21.113Z,82.31
2023-03-12T11:53:25.350Z,82.45
2023-03-12T11:54:29.589Z,82.65
2023-03-12T11:55:33.808Z,82.76
2023-03-12T11:56:38.010Z,82.61
2023-03-12T11:57:42.257Z,82.49
2023-03-12T11:58:46.444Z,82.62
2023-03-12T11:59:50.613Z,82.84
2023-03-12T12:00:54.832Z,83.04
2023-03-12T12:01:59.078Z,83.12
2023-03-12T12:03:03.256Z,83.26
2023-03-12T12:04:07.494Z,83.48
2023-03-12T12:05:11.827Z,83.69
2023-03-12T12:06:15.998Z,83.83
2023-03-12T12:07:20.198Z,83.72
2023-03-12T12:08:24.419Z,83.55
2023-03-12T12:09:28.618Z,83.51
2023-03-12T12:10:32.834Z,83.54
2023-03-12T12:11:37.150Z,83.75
2023-03-12T12:12:41.319Z,83.74
2023-03-12T12:13:45.542Z,83.71
2023-03-12T12:14:49.753Z,83.90
2023-03-12T12:15:54.139Z,83.84
2023-03-12T12:16:58.272Z,83.60
2023-03-12T12:18:02.490Z,83.49
2023-03-12T12:19:06.569Z,83.33
2023-03-12T12:20:10.845Z,83.33
2023-03-12T12:21:14.960Z,83.22
2023-03-12T12:22:19.220Z,83.35
2023-03-12T12:23:23.388Z,83.50
2023-03-12T12:24:27.644Z,83.56
2023-03-12T12:25:31.935Z,83.48
2023-03-12T12:26:36.107Z,83.25
2023-03-12T12:27:40.333Z,83.30
2023-03-12T12:28:44.559Z,83.46
2023-03-12T12:29:48.769Z,83.46
2023-03-12T12:30:52.912Z,83.42
2023-03-12T12:31:57.282Z,82.93
2023-03-12T12:33:01.312Z,82.80
2023-03-12T12:34:05.517Z,82.86
2023-03-12T12:35:10.589Z,82.75
2023-03-12T12:36:13.949Z,82.91
2023-03-12T12:37:18.112Z,83.06
2023-03-12T12:38:22.281Z,82.93
2023-03-12T12:39:26.552Z,82.95
2023-03-12T12:40:30.769Z,83.04
2023-03-12T12:41:34.889Z,83.13
2023-03-12T12:42:39.108Z,83.09
2023-03-12T12:43:43.252Z,82.75
2023-03-12T12:44:47.488Z,82.16
2023-03-12T12:45:51.747Z,81.51
2023-03-12T12:46:55.915Z,81.46
2023-03-12T12:48:00.124Z,81.51
2023-03-12T12:49:07.335Z,81.21
2023-03-12T12:50:10.569Z,81.07
2023-03-12T12:51:14.768Z,81.21
2023-03-12T12:52:18.944Z,81.18
2023-03-12T12:53:23.201Z,81.14
2023-03-12T12:54:27.335Z,80.91
2023-03-12T12:55:37.560Z,80.67
2023-03-12T12:56:40.301Z,80.79
2023-03-12T12:57:44.556Z,80.89
2023-03-12T12:58:48.840Z,80.88
2023-03-12T12:59:52.991Z,81.12
2023-03-12T13:00:57.297Z,81.13
2023-03-12T13:02:01.411Z,81.26
2023-03-12T13:03:05.595Z,81.17
2023-03-12T13:04:09.911Z,81.05
2023-03-12T13:05:14.054Z,80.88
2023-03-12T13:06:18.163Z,80.81
2023-03-12T13:07:22.435Z,80.69
2023-03-12T13:08:26.561Z,80.97
2023-03-12T13:09:30.745Z,81.22
2023-03-12T13:10:35.012Z,81.32
2023-03-12T13:11:39.281Z,81.43
2023-03-12T13:12:43.488Z,81.26
2023-03-12T13:13:47.648Z,81.37
2023-03-12T13:14:51.836Z,81.47
2023-03-12T13:15:56.084Z,81.37
2023-03-12T13:17:00.255Z,81.18
2023-03-12T13:18:04.507Z,81.00
2023-03-12T13:19:08.841Z,80.93
2023-03-12T13:20:13.072Z,80.94
2023-03-12T13:21:17.214Z,80.81
2023-03-12T13:22:21.407Z,80.83
2023-03-12T13:23:25.622Z,81.03
2023-03-12T13:24:29.877Z,81.04
2023-03-12T13:25:34.082Z,81.01
2023-03-12T13:26:38.293Z,81.01
2023-03-12T13:27:42.476Z,81.07
2023-03-12T13:28:46.566Z,81.20
2023-03-12T13:29:50.982Z,81.44
2023-03-12T13:30:55.163Z,81.65
2023-03-12T13:31:59.350Z,81.94
2023-03-12T13:33:03.522Z,82.09
2023-03-12T13:34:13.793Z,81.97
2023-03-12T13:35:16.637Z,81.83